Queen Isabella — A8IE2 — position and weather

sailwx.info

Track history (hours):
 
Tides and Currents Weather Stations Pressure Air Temp Water Temp Dewpoint Dewpoint Depression Visibility Wind Speed Wind Dir Waves Ship Positions

Queen Isabella

Last reported at 2018-Jan-10 03:07 UTC. Time now 2018-Jan-20 21:18 UTC.
Position N 39°03' W 010°12'.
Warning: this ship's position is 10 days out of date.

Length 131 m; draft 7.9 m.

Type: Ship. MMSI: 636090959.

Date/timePositionNaut miles runAvg speedWind from/ knotsBaromVisibWave heightAir tempDewpointWater temp
2018-Jan-10 03:07N 39°03' W 010°12'211.1
2018-Jan-10 02:59N 39°04' W 010°12'711.3
2018-Jan-10 02:24N 39°11' W 010°12'  
2018-Jan-07 06:13N 43°37' W 005°58'1 4.2
2018-Jan-07 05:55N 43°38' W 005°60'2 4.5
2018-Jan-07 05:29N 43°38' W 006°03'1 1.0
2018-Jan-07 04:57N 43°39' W 006°03'2 3.9
2018-Jan-07 04:29N 43°38' W 006°01'4 7.7
2018-Jan-07 04:00N 43°39' W 006°06'610.3
2018-Jan-07 03:28N 43°41' W 006°13'310 7.6
2018-Jan-05 10:37N 39°19' W 009°56'110.3
2018-Jan-05 10:30N 39°18' W 009°56'510.2
2018-Jan-05 10:00N 39°13' W 009°56'611.3
2018-Jan-05 09:31N 39°08' W 009°56'611.3
2018-Jan-05 09:00N 39°02' W 009°56'611.4
2018-Jan-05 08:30N 38°56' W 009°56'611.1
2018-Jan-05 08:00N 38°51' W 009°56'611.2
2018-Jan-05 07:30N 38°45' W 009°56'511.0
2018-Jan-05 07:00N 38°40' W 009°55'611.3
2018-Jan-05 06:30N 38°34' W 009°53'25710.4
2018-Jan-04 05:51N 35°58' W 005°37'3 8.2
2018-Jan-04 05:29N 35°59' W 005°33'13 1.1
2018-Jan-03 17:15N 36°05' W 005°19'2 7.0
2018-Jan-03 16:56N 36°05' W 005°16'  
2017-Dec-31 07:42N 35°59' W 005°14'414.4
2017-Dec-31 07:27N 35°59' W 005°18'715.0
2017-Dec-31 07:01N 35°57' W 005°26'  
Track history (hours):
 
Tides and Currents Weather Stations Pressure Air Temp Water Temp Dewpoint Dewpoint Depression Visibility Wind Speed Wind Dir Waves Ship Positions

Queen Isabella

Last reported at 2018-Jan-10 03:07 UTC. Time now 2018-Jan-20 21:18 UTC.
Position N 39°03' W 010°12'.
Warning: this ship's position is 10 days out of date.

Length 131 m; draft 7.9 m.

Type: Ship. MMSI: 636090959.

Date/timePositionNaut miles runAvg speedWind from/ knotsBaromVisibWave heightAir tempDewpointWater temp
2018-Jan-10 03:07N 39°03' W 010°12'211.1
2018-Jan-10 02:59N 39°04' W 010°12'711.3
2018-Jan-10 02:24N 39°11' W 010°12'  
2018-Jan-07 06:13N 43°37' W 005°58'1 4.2
2018-Jan-07 05:55N 43°38' W 005°60'2 4.5
2018-Jan-07 05:29N 43°38' W 006°03'1 1.0
2018-Jan-07 04:57N 43°39' W 006°03'2 3.9
2018-Jan-07 04:29N 43°38' W 006°01'4 7.7
2018-Jan-07 04:00N 43°39' W 006°06'610.3
2018-Jan-07 03:28N 43°41' W 006°13'310 7.6
2018-Jan-05 10:37N 39°19' W 009°56'110.3
2018-Jan-05 10:30N 39°18' W 009°56'510.2
2018-Jan-05 10:00N 39°13' W 009°56'611.3
2018-Jan-05 09:31N 39°08' W 009°56'611.3
2018-Jan-05 09:00N 39°02' W 009°56'611.4
2018-Jan-05 08:30N 38°56' W 009°56'611.1
2018-Jan-05 08:00N 38°51' W 009°56'611.2
2018-Jan-05 07:30N 38°45' W 009°56'511.0
2018-Jan-05 07:00N 38°40' W 009°55'611.3
2018-Jan-05 06:30N 38°34' W 009°53'25710.4
2018-Jan-04 05:51N 35°58' W 005°37'3 8.2
2018-Jan-04 05:29N 35°59' W 005°33'13 1.1
2018-Jan-03 17:15N 36°05' W 005°19'2 7.0
2018-Jan-03 16:56N 36°05' W 005°16'  
2017-Dec-31 07:42N 35°59' W 005°14'414.4
2017-Dec-31 07:27N 35°59' W 005°18'715.0
2017-Dec-31 07:01N 35°57' W 005°26'  

Dump ship's entire track history